Jacksonville, NC (28541)

8:34 AM EDT on March 28, 2015 (GMT -0400)
Western Blvd | | Change Station
CLOSE
Current Station
Personal Weather Station
Location: Jacksonville, NC
Elevation: 33 ft
Nearby Weather Stations
Active Advisory: Freeze Warning

Elev 33 ft 34.76 °N, 77.38 °W | Updated 3 minutes ago

Overcast
Overcast
39.8 °F
Feels Like 40 °F
N
3.0
Wind Variable Wind from North
Gusts 8.0 mph

Today
High -- | Low -- °F
--% Chance of Precip.
Yesterday
High -- | Low -- °F
Precip. -- in
7:02 AM 7:27 PM
First Quarter, 62% visible
Pressure 29.97 in
Visibility 10.0 miles
Clouds Overcast 1100 ft
Windchill 40 °F
Dew Point 37 °F
Humidity 91%
Rainfall -999.00 in
Snow Depth Not available.
UV 10.3 out of 12
Pollen 9.20 out of 12
Air Quality Not available.
Flu Activity Not available.
METAR KNCA 281156Z AUTO 34010KT 10SM -RA OVC011 05/03 A2996 RMK AO2 SLP149 P0001 60001 70053 T00500033 10061 20039 53033

More Conditions Fewer Conditions

Pressure 29.97 in
Visibility 10.0 miles
Clouds Overcast 1100 ft
Windchill 40 °F
Dew Point 37 °F
Humidity 91%
Rainfall -999.00 in
Snow Depth Not available.
UV 10.3 out of 12
Pollen 9.20 out of 12
Air Quality Not available.
Flu Activity Not available.
METAR KNCA 281156Z AUTO 34010KT 10SM -RA OVC011 05/03 A2996 RMK AO2 SLP149 P0001 60001 70053 T00500033 10061 20039 53033

More Conditions Fewer Conditions

10-Day Weather Forecast

Almanac

Astronomy

Mar. 28, 2015 Rise Set
Actual Time
Civil Twilight
Nautical Twilight
Astronomical Twilight
Moon
Length of Visible Light
Length of Day
Tomorrow will be .
, % of the Moon is Illuminated

Today's Extremes

State Highs State Lows

Community

WunderPhotos

Upload Photos

1,808,966 photos uploaded!

WunderBlogs® & News

Nearby

Air Quality

  Air Quality AQ Index Pollutant
Not available.

Snow Depth

Station Depth Elevation

Earthquake Activity

City Distance Mag. Time & Date
Minimum magnitude displayed is 2.5.

Coastal Water Temperatures

Place Temperature

Stations

Nearby Weather Stations

Station Location Temp. Windchill Dew Point Humidity Wind Precip. Elev Updated Type
                   
Freeze Warning
Statement as of 7:12 AM EDT on March 28, 2015

... Freeze warning remains in effect from 1 am to 8 am EDT
Sunday...

* temperatures... mid to upper 20s inland... and upper 20s to lower
30s along the coast.

* Timing... tonight into early Sunday morning.

* Impacts... cold temperatures will damage or kill sensitive
plants.

Precautionary/preparedness actions...

A freeze warning means sub-freezing temperatures are imminent or
highly likely. These conditions will kill crops and other
sensitive vegetation.